메인 페이지
METAR-TAF:

METAR-TAF

공항 :

이바라키 공항, 일본

위도: 36-11N, 경도: 140-25E, 고도: 32m

현재 날씨관측

예보는 24분 전, 00:00시(UTC)에 발표되었습니다.
남남서5kt
온도 21°C
습도 100%
기압 1008 hPa
시정: 8000m
고도 300ft 상공 구름 조금
고도 2000ft 상공 구름 많음

METAR: RJAH 220000Z 21005KT 8000 FEW003 BKN020 21/21 Q1008

시각: 09:24 (00:24 UTC)

예보

예보는 1 시간 14분 전, 23:10시(UTC)에 발표되었습니다.
예보 대상 시간: 22일 00시부터 23일 06시까지 (UTC)
서남서4kt
시정: 8000m
고도 800ft 상공 구름 조금
고도 1500ft 상공 구름 많음
전환 중
22일 00시부터 22일 02시까지 (UTC)
서북서5kt
일시적
22일 01시부터 22일 06시까지 (UTC)
고도 500ft 상공 구름 조금
고도 800ft 상공 구름 많음
전환 중
22일 06시부터 22일 08시까지 (UTC)
서남서4kt
전환 중
22일 10시부터 22일 12시까지 (UTC)
북북동5kt

TAF: RJAH 212310Z 2200/2306 24004KT 8000 FEW008 BKN015 BECMG 2200/2202 30005KT TEMPO 2201/2206 FEW005 BKN008 BECMG 2206/2208 24004KT BECMG 2210/2212 03005KT

4,000개 이상의 공항 관측 자료 및 예보 (METAR 및 TAF 보고).

지도상에서 검색 가능한 기상관측소가 노란 점과 빨간 점으로 표시되어 있습니다.

기상관측소 명을 보려면 표시 위로 마우스를 이동하세요.

날씨 관측과 예보를 보려면 클릭하세요.

지도 변경 : 확대하려면 엑스 표시가 있는 녹색 버튼, 축소하려면 빼기 표시가 있는 녹색 버튼, 다음 페이지의 지도를 보려면 녹색 화살표를 클릭하세요.


METAR-TAF: